Hovedside
METAR-TAF:

METAR-TAF

Lufthavner :

Sofia lufthavn

Sofia, Bulgaria

breddegrad: 42-39N, lengdegrad: 023-23E, høyde over havet: 586 m

Gjeldene værobservasjon

Denne rapporten ble laget for 22 minutter siden, klokken 19:30 UTC
Vind 4 kt fra Sør, skiftende mellom Sørøst og Sør-sørvest
Temperatur 22°C
Luftfuktighet 60%
Trykk 1015 hPa
Sikt 10 km eller mer
ingen skyer under 1500 m og ingen bygeskyer

METAR: LBSF 161930Z 19004KT 140V210 CAVOK 22/14 Q1015 NOSIG

Tid: 22:52 (19:52 UTC)

Varsel

Denne rapporten ble laget for 2 timer og 52 minutter siden, klokken 17:00 UTC
Varsel gyldig fra 16. klokken 18 UTC til 17. klokken 18 UTC
Vind 4 kt fra skiftende retning
Sikt 10 km eller mer
ingen skyer under 1500 m og ingen bygeskyer
Blir
fra 17. klokken 09 UTC til 17. klokken 11 UTC
Vind 10 kt fra Øst-nordøst
Sikt 10 km eller mer
Spredte skyer i en høyde av 6000 ft

TAF: LBSF 161700Z 1618/1718 VRB04KT CAVOK BECMG 1709/1711 06010KT 9999 SCT060

Værobservasjoner og værvarsel for over 4000 flyplasser (METAR- og TAF-rapporter).

Tilgjengelige stasjoner er representert av de røde og gule prikkene på kartet.

Hold musepekeren over prikken for å se navnet på stasjonen.

Klikk så for å se værobservasjoner og -varsler.

For å forandre kartet kan du klikke på den grønne knappen med svart kryss for å zoome inn, på den grønne knappen med strek for å zoome ut, eller på de grønne pilene for å se tilstøtende kart.


METAR-TAF: